Decoded Metar for KRPD (RICE LAKE in WI, USA) (IATA:RPD) | Meteo·Mobile Aviation Weather
aviador You're here:

KRPD Decoded Metar

RICE LAKE in WI, USA
Report Time2019-06-18 15:15:00
UTC Time2019-06-18 15:15:07
Flight Rules vfr VFR
Wind260° at 07 kt
W.Decomp.*RWY 31: 4.4 kt HW 5.4 kt LCW
RWY 19: 2.5 kt HW 6.5 kt RCW
Visibility9999 m
Phenomena:N/A
Clouds:Scattered 028 Hf
Expected CloudBase > 2,800 ft AGL from Temp-Dew spread
CeilingNone
Temp19°C (ISA +6)
Dew Point12°C (64% RH)
AAT17.1°C
QNH1015 hPa
Density Alt1,959 ft
Elevation1,109 ft
Report Wrong Elevation
Raw Report
KRPD 181515Z AUTO 26007KT 10SM SCT028 19/12 A2998 RMK AO2
T01900123=

Extra information for KRPD:More info

Metar Taf Metar & Taf Last 4 Metars F.Rules Stats Wind Profile Meteogram Temp Stats Airport Information Weather charts Add Link Nearby VenuesMetar ALERT Operation Metar Decoded Social comments

AIRNAV info for KRPD